Friday, November 17, 2017, 2:34 PM EST
Back to Local

KMRB, Martinsburg Eastern Wv Reg

Location: Martinsburg, WV, United States Lat: 39.4
Local Time: 2:34 PM EST (19:34 GMT) Lon: -77.983
Time Zone: US/Eastern Elev: 557 ft

Show me the last for .
Show Decoded

2017-11-17 13:53 METAR KMRB 171853Z 32006KT 10SM CLR 11/M04 A3015 RMK AO2 SLP212 T01111044 $ =
2017-11-17 12:53 METAR KMRB 171753Z 29008KT 10SM CLR 11/M04 A3016 RMK AO2 SLP214 T01061039 10106
                 20017 58026 $ =
2017-11-17 11:53 METAR KMRB 171653Z 29006KT 10SM CLR 09/M03 A3020 RMK AO2 SLP228 T00941033 $ =
2017-11-17 10:53 METAR KMRB 171553Z 33010KT 10SM CLR 08/M03 A3023 RMK AO2 SLP238 T00831033 $ =
2017-11-17 09:53 METAR KMRB 171453Z 32010KT 10SM CLR 07/M03 A3023 RMK AO2 SLP241 T00721028 51014
                 $ =
2017-11-17 08:53 METAR KMRB 171353Z 32005KT 10SM CLR 06/M03 A3023 RMK AO2 SLP239 T00561028 $ =
2017-11-17 07:53 METAR KMRB 171253Z 32007KT 10SM CLR 04/M03 A3020 RMK AO2 SLP230 T00391028 $ =
2017-11-17 06:53 METAR KMRB 171153Z 00000KT 10SM CLR 02/M03 A3019 RMK AO2 SLP228 7//// T00221033
                 10061 20017 51021 $ =
2017-11-17 05:53 METAR KMRB 171053Z AUTO 27004KT 10SM CLR 03/M03 A3017 RMK AO2 SLP220 T00331033 $
                 =
2017-11-17 04:53 METAR KMRB 170953Z AUTO 30010KT 10SM SCT038 05/M03 A3015 RMK AO2 SLP214
                 T00501028 $ =
2017-11-17 03:53 METAR KMRB 170853Z AUTO 31014KT 10SM SCT039 05/M03 A3013 RMK AO2 SLP204
                 T00501028 50004 $ =
2017-11-17 02:53 METAR KMRB 170753Z AUTO 30010G16KT 10SM BKN040 06/M03 A3013 RMK AO2 SLP206
                 T00561028 $ =
2017-11-17 01:53 METAR KMRB 170653Z AUTO 31012KT 10SM OVC040 06/M03 A3012 RMK AO2 SLP201
                 T00561028 $ =
2017-11-17 00:53 METAR KMRB 170553Z AUTO 29012G17KT 10SM OVC041 06/M03 A3012 RMK AO2 SLP199
                 T00611028 10067 20056 53007 $ =
2017-11-16 23:53 METAR KMRB 170453Z AUTO 33006KT 10SM OVC042 06/M03 A3010 RMK AO2 SLP194
                 T00611028 401500033 $ =
2017-11-16 22:53 METAR KMRB 170353Z 30007KT 10SM OVC042 06/M03 A3010 RMK AO2 SLP195 T00611028 $ =
2017-11-16 21:53 METAR KMRB 170253Z 31011G19KT 10SM OVC040 06/M02 A3010 RMK AO2 PK WND 30028/0230
                 SLP193 T00611022 51008 $ =
2017-11-16 20:53 METAR KMRB 170153Z 32008G24KT 270V340 10SM OVC038 06/M02 A3008 RMK AO2 SLP190
                 T00561022 $ =
2017-11-16 19:53 METAR KMRB 170053Z 31015G20KT 10SM OVC035 06/M02 A3009 RMK AO2 SLP191 T00611017
                 $ =
2017-11-16 18:53 METAR KMRB 162353Z 30007G21KT 10SM OVC036 07/M02 A3007 RMK AO2 SLP186 6////
                 T00671017 10144 20067 51035 $ =
2017-11-16 17:53 METAR KMRB 162253Z 30012G23KT 10SM FEW037 07/M02 A3004 RMK AO2 PK WND 31031/2218
                 SLP175 T00671017 $ =
2017-11-16 16:53 METAR KMRB 162153Z 30015G25KT 10SM CLR 08/M01 A3000 RMK AO2 PK WND 32036/2117
                 SLP163 T00781011 $ =
2017-11-16 15:53 METAR KMRB 162053Z 30021G31KT 10SM CLR 10/M02 A2997 RMK AO2 PK WND 30031/2051
                 SLP149 6//// T01001017 53029 $ =
2017-11-16 14:53 METAR KMRB 161953Z 31015G21KT 10SM FEW050 12/M01 A2994 RMK AO2 PK WND 33030/1925
                 SLP139 T01171011 $ =

Support USWX by starting your Amazon purchase here.